Asheville Regional Airport
KAVL : now visible

Airfield :











YOU CAN JOIN US ON...

 
LOGIN :

Register | Disclaimer

   EN    FR    IT 

 









Legend :    VFR   Marginal VFR   IFR   Intensive IFR   Very Intensive IFR
Visi :
Ceiling :
>= 8 km
>= 3000ft
5 to 8 km
1000 to 3000 ft
1500m to 5 km
500 to 1000 ft
800 to 1500m
200 to 500 ft
< 800m
< 200 ft
Symbols :   Thunderstorms  Fog  Heavy snow  Heavy precipitations  Wind > 20 kt







- Airport Elevation : 2165 ft
- IATA code : AVL


KAVL - Asheville Regional

CURRENT METAR :
  • 190854Z AUTO 31003KT 10SM CLR 19/18 A3013 RMK AO2 SLP172 T01940178 56000

EXPIRED METARs :
  • 190754Z AUTO 22003KT 10SM CLR 19/18 A3013 RMK AO2 SLP172 T01940178
  • 190654Z AUTO 00000KT 10SM CLR 21/18 A3012 RMK AO2 SLP170 T02060183

TAF KAVL
Valid from the 19 at 06:00 until the 20 at 06:00 UTC


190525Z 1906/2006 VRB02KT P6SM FEW070 FEW090
TEMPO 1909/1913 00000KT 4SM BR BKN003
FM191300 34004KT P6SM SCT080
FM191800 13004KT P6SM BKN060
PROB30 1919/1924 4SM TSRA OVC025CB
FM200300 VRB02KT 6SM BR BKN100
FM200400 00000KT 5SM BR BKN100
No reported NOTAMs for that airfield.



MET'MAP, your aeronautical weather chart ! - Copyright ORBIFLY December 2007 - Disclaimer

ORBIFLY MET'MAP TEAM :

Programming & Development : Alexandra Zaïnal
Concept & Development : Baudouin d'Aumeries
Co-Development & Prog : Marc-Olivier Méhu
Technical & hardware support : Manuel Goepfert

Contact : metmap@orbifly.com




SOURCES & CREDITS :

   NOAA       Earth
Advisory